sensor_id;sensor_type;location;lat;lon;timestamp;temperature;humidity
9847;DHT22;4962;50.084;8.794;2022-08-19T00:01:26;24.60;99.90
9847;DHT22;4962;50.084;8.794;2022-08-19T00:03:54;24.60;99.90
9847;DHT22;4962;50.084;8.794;2022-08-19T00:06:21;24.60;99.90
9847;DHT22;4962;50.084;8.794;2022-08-19T00:08:48;24.60;99.90
9847;DHT22;4962;50.084;8.794;2022-08-19T00:11:16;24.70;99.90
9847;DHT22;4962;50.084;8.794;2022-08-19T00:13:45;24.60;99.90
9847;DHT22;4962;50.084;8.794;2022-08-19T00:16:13;24.60;99.90
9847;DHT22;4962;50.084;8.794;2022-08-19T00:18:40;24.60;99.90
9847;DHT22;4962;50.084;8.794;2022-08-19T00:21:07;24.50;99.90
9847;DHT22;4962;50.084;8.794;2022-08-19T00:23:34;24.40;99.90
9847;DHT22;4962;50.084;8.794;2022-08-19T00:26:02;24.20;99.90
9847;DHT22;4962;50.084;8.794;2022-08-19T00:28:29;24.10;99.90
9847;DHT22;4962;50.084;8.794;2022-08-19T00:30:58;24.00;99.90
9847;DHT22;4962;50.084;8.794;2022-08-19T00:33:25;24.00;99.90
9847;DHT22;4962;50.084;8.794;2022-08-19T00:35:52;23.90;99.90
9847;DHT22;4962;50.084;8.794;2022-08-19T00:38:18;23.90;99.90
9847;DHT22;4962;50.084;8.794;2022-08-19T00:40:48;23.90;99.90
9847;DHT22;4962;50.084;8.794;2022-08-19T00:43:18;24.00;99.90
9847;DHT22;4962;50.084;8.794;2022-08-19T00:45:46;24.00;99.90
9847;DHT22;4962;50.084;8.794;2022-08-19T00:48:17;24.00;99.90
9847;DHT22;4962;50.084;8.794;2022-08-19T00:50:45;23.90;99.90
9847;DHT22;4962;50.084;8.794;2022-08-19T00:53:17;23.90;99.90
9847;DHT22;4962;50.084;8.794;2022-08-19T00:55:46;23.80;99.90
9847;DHT22;4962;50.084;8.794;2022-08-19T00:58:16;23.70;99.90
9847;DHT22;4962;50.084;8.794;2022-08-19T01:00:44;23.60;99.90
9847;DHT22;4962;50.084;8.794;2022-08-19T01:03:14;23.60;99.90
9847;DHT22;4962;50.084;8.794;2022-08-19T01:05:44;23.60;99.90
9847;DHT22;4962;50.084;8.794;2022-08-19T01:08:11;23.50;99.90
9847;DHT22;4962;50.084;8.794;2022-08-19T01:10:43;23.50;99.90
9847;DHT22;4962;50.084;8.794;2022-08-19T01:13:13;23.40;99.90
9847;DHT22;4962;50.084;8.794;2022-08-19T01:15:43;23.40;99.90
9847;DHT22;4962;50.084;8.794;2022-08-19T01:18:13;23.40;99.90
9847;DHT22;4962;50.084;8.794;2022-08-19T01:20:43;23.40;99.90
9847;DHT22;4962;50.084;8.794;2022-08-19T01:23:12;23.30;99.90
9847;DHT22;4962;50.084;8.794;2022-08-19T01:25:43;23.20;99.90
9847;DHT22;4962;50.084;8.794;2022-08-19T01:28:16;23.20;99.90
9847;DHT22;4962;50.084;8.794;2022-08-19T01:30:44;23.20;99.90
9847;DHT22;4962;50.084;8.794;2022-08-19T01:33:12;23.20;99.90
9847;DHT22;4962;50.084;8.794;2022-08-19T01:35:40;23.10;99.90
9847;DHT22;4962;50.084;8.794;2022-08-19T01:38:18;23.10;99.90
9847;DHT22;4962;50.084;8.794;2022-08-19T01:40:47;23.10;99.90
9847;DHT22;4962;50.084;8.794;2022-08-19T01:43:14;23.10;99.90
9847;DHT22;4962;50.084;8.794;2022-08-19T01:45:41;23.10;99.90
9847;DHT22;4962;50.084;8.794;2022-08-19T01:48:08;23.00;99.90
9847;DHT22;4962;50.084;8.794;2022-08-19T01:50:35;23.00;99.90
9847;DHT22;4962;50.084;8.794;2022-08-19T01:53:05;22.90;99.90
9847;DHT22;4962;50.084;8.794;2022-08-19T01:55:34;22.90;99.90
9847;DHT22;4962;50.084;8.794;2022-08-19T01:58:05;22.90;99.90
9847;DHT22;4962;50.084;8.794;2022-08-19T02:00:33;22.90;99.90
9847;DHT22;4962;50.084;8.794;2022-08-19T02:03:00;22.90;99.90
9847;DHT22;4962;50.084;8.794;2022-08-19T02:05:27;22.90;99.90
9847;DHT22;4962;50.084;8.794;2022-08-19T02:07:55;22.90;99.90
9847;DHT22;4962;50.084;8.794;2022-08-19T02:10:25;22.90;99.90
9847;DHT22;4962;50.084;8.794;2022-08-19T02:12:52;22.90;99.90
9847;DHT22;4962;50.084;8.794;2022-08-19T02:15:20;22.90;99.90
9847;DHT22;4962;50.084;8.794;2022-08-19T02:17:48;22.90;99.90
9847;DHT22;4962;50.084;8.794;2022-08-19T02:20:16;23.00;99.90
9847;DHT22;4962;50.084;8.794;2022-08-19T02:22:43;23.00;99.90
9847;DHT22;4962;50.084;8.794;2022-08-19T02:25:12;23.10;99.90
9847;DHT22;4962;50.084;8.794;2022-08-19T02:27:40;23.10;99.90
9847;DHT22;4962;50.084;8.794;2022-08-19T02:30:10;23.10;99.90
9847;DHT22;4962;50.084;8.794;2022-08-19T02:32:39;23.20;99.90
9847;DHT22;4962;50.084;8.794;2022-08-19T02:35:07;23.20;99.90
9847;DHT22;4962;50.084;8.794;2022-08-19T02:37:34;23.20;99.90
9847;DHT22;4962;50.084;8.794;2022-08-19T02:40:18;23.20;99.90
9847;DHT22;4962;50.084;8.794;2022-08-19T02:42:46;23.30;99.90
9847;DHT22;4962;50.084;8.794;2022-08-19T02:45:13;23.40;99.90
9847;DHT22;4962;50.084;8.794;2022-08-19T02:47:42;23.40;99.90
9847;DHT22;4962;50.084;8.794;2022-08-19T02:50:09;23.40;99.90
9847;DHT22;4962;50.084;8.794;2022-08-19T02:52:36;23.40;99.90
9847;DHT22;4962;50.084;8.794;2022-08-19T02:55:04;23.40;99.90
9847;DHT22;4962;50.084;8.794;2022-08-19T02:57:31;23.40;99.90
9847;DHT22;4962;50.084;8.794;2022-08-19T02:59:59;23.30;99.90
9847;DHT22;4962;50.084;8.794;2022-08-19T03:02:26;23.30;99.90
9847;DHT22;4962;50.084;8.794;2022-08-19T03:04:57;23.20;99.90
9847;DHT22;4962;50.084;8.794;2022-08-19T03:07:24;23.10;99.90
9847;DHT22;4962;50.084;8.794;2022-08-19T03:09:51;23.10;99.90
9847;DHT22;4962;50.084;8.794;2022-08-19T03:12:18;23.10;99.90
9847;DHT22;4962;50.084;8.794;2022-08-19T03:14:45;23.10;99.90
9847;DHT22;4962;50.084;8.794;2022-08-19T03:17:12;23.10;99.90
9847;DHT22;4962;50.084;8.794;2022-08-19T03:19:39;23.10;99.90
9847;DHT22;4962;50.084;8.794;2022-08-19T03:22:07;23.20;99.90
9847;DHT22;4962;50.084;8.794;2022-08-19T03:24:34;23.20;99.90
9847;DHT22;4962;50.084;8.794;2022-08-19T03:27:01;23.20;99.90
9847;DHT22;4962;50.084;8.794;2022-08-19T03:29:31;23.10;99.90
9847;DHT22;4962;50.084;8.794;2022-08-19T03:31:58;23.10;99.90
9847;DHT22;4962;50.084;8.794;2022-08-19T03:34:28;23.00;99.90
9847;DHT22;4962;50.084;8.794;2022-08-19T03:36:57;23.00;99.90
9847;DHT22;4962;50.084;8.794;2022-08-19T03:39:26;22.90;99.90
9847;DHT22;4962;50.084;8.794;2022-08-19T03:41:54;22.90;99.90
9847;DHT22;4962;50.084;8.794;2022-08-19T03:44:23;22.90;99.90
9847;DHT22;4962;50.084;8.794;2022-08-19T03:46:52;22.90;99.90
9847;DHT22;4962;50.084;8.794;2022-08-19T03:49:21;23.00;99.90
9847;DHT22;4962;50.084;8.794;2022-08-19T03:51:49;23.00;99.90
9847;DHT22;4962;50.084;8.794;2022-08-19T03:54:20;23.10;99.90
9847;DHT22;4962;50.084;8.794;2022-08-19T03:56:51;23.10;99.90
9847;DHT22;4962;50.084;8.794;2022-08-19T03:59:24;23.10;99.90
9847;DHT22;4962;50.084;8.794;2022-08-19T04:01:52;23.20;99.90
9847;DHT22;4962;50.084;8.794;2022-08-19T04:04:19;23.20;99.90
9847;DHT22;4962;50.084;8.794;2022-08-19T04:06:47;23.20;99.90
9847;DHT22;4962;50.084;8.794;2022-08-19T04:09:15;23.20;99.90
9847;DHT22;4962;50.084;8.794;2022-08-19T04:11:47;23.20;99.90
9847;DHT22;4962;50.084;8.794;2022-08-19T04:14:18;23.30;99.90
9847;DHT22;4962;50.084;8.794;2022-08-19T04:16:47;23.30;99.90
9847;DHT22;4962;50.084;8.794;2022-08-19T04:19:15;23.30;99.90
9847;DHT22;4962;50.084;8.794;2022-08-19T04:21:44;23.30;99.90
9847;DHT22;4962;50.084;8.794;2022-08-19T04:24:12;23.30;99.90
9847;DHT22;4962;50.084;8.794;2022-08-19T04:26:39;23.30;99.90
9847;DHT22;4962;50.084;8.794;2022-08-19T04:29:08;23.30;99.90
9847;DHT22;4962;50.084;8.794;2022-08-19T04:31:37;23.30;99.90
9847;DHT22;4962;50.084;8.794;2022-08-19T04:34:06;23.30;99.90
9847;DHT22;4962;50.084;8.794;2022-08-19T04:36:35;23.30;99.90
9847;DHT22;4962;50.084;8.794;2022-08-19T04:39:06;23.30;99.90
9847;DHT22;4962;50.084;8.794;2022-08-19T04:41:33;23.30;99.90
9847;DHT22;4962;50.084;8.794;2022-08-19T04:44:18;23.30;99.90
9847;DHT22;4962;50.084;8.794;2022-08-19T04:46:47;23.30;99.90
9847;DHT22;4962;50.084;8.794;2022-08-19T04:49:15;23.20;99.90
9847;DHT22;4962;50.084;8.794;2022-08-19T04:51:45;23.10;99.90
9847;DHT22;4962;50.084;8.794;2022-08-19T04:54:13;23.00;99.90
9847;DHT22;4962;50.084;8.794;2022-08-19T04:56:40;22.90;99.90
9847;DHT22;4962;50.084;8.794;2022-08-19T04:59:07;22.80;99.90
9847;DHT22;4962;50.084;8.794;2022-08-19T05:01:36;22.60;99.90
9847;DHT22;4962;50.084;8.794;2022-08-19T05:04:06;22.50;99.90
9847;DHT22;4962;50.084;8.794;2022-08-19T05:06:33;22.30;99.90
9847;DHT22;4962;50.084;8.794;2022-08-19T05:09:02;22.20;99.90
9847;DHT22;4962;50.084;8.794;2022-08-19T05:11:35;22.20;99.90
9847;DHT22;4962;50.084;8.794;2022-08-19T05:14:04;22.10;99.90
9847;DHT22;4962;50.084;8.794;2022-08-19T05:16:31;22.20;99.90
9847;DHT22;4962;50.084;8.794;2022-08-19T05:18:58;22.20;99.90
9847;DHT22;4962;50.084;8.794;2022-08-19T05:21:44;22.30;99.90
9847;DHT22;4962;50.084;8.794;2022-08-19T05:24:28;22.40;99.90
9847;DHT22;4962;50.084;8.794;2022-08-19T05:26:56;22.50;99.90
9847;DHT22;4962;50.084;8.794;2022-08-19T05:29:25;22.50;99.90
9847;DHT22;4962;50.084;8.794;2022-08-19T05:31:53;22.60;99.90
9847;DHT22;4962;50.084;8.794;2022-08-19T05:34:24;22.70;99.90
9847;DHT22;4962;50.084;8.794;2022-08-19T05:36:55;22.80;99.90
9847;DHT22;4962;50.084;8.794;2022-08-19T05:39:24;23.00;99.90
9847;DHT22;4962;50.084;8.794;2022-08-19T05:41:53;23.10;99.90
9847;DHT22;4962;50.084;8.794;2022-08-19T05:44:23;23.20;99.90
9847;DHT22;4962;50.084;8.794;2022-08-19T05:46:50;23.40;99.90
9847;DHT22;4962;50.084;8.794;2022-08-19T05:49:20;23.50;99.90
9847;DHT22;4962;50.084;8.794;2022-08-19T05:51:48;23.60;99.90
9847;DHT22;4962;50.084;8.794;2022-08-19T05:54:17;23.70;99.90
9847;DHT22;4962;50.084;8.794;2022-08-19T05:56:44;23.80;99.90
9847;DHT22;4962;50.084;8.794;2022-08-19T05:59:13;23.90;99.90
9847;DHT22;4962;50.084;8.794;2022-08-19T06:01:50;24.00;99.90
9847;DHT22;4962;50.084;8.794;2022-08-19T06:04:18;24.00;99.90
9847;DHT22;4962;50.084;8.794;2022-08-19T06:06:45;24.20;99.90
9847;DHT22;4962;50.084;8.794;2022-08-19T06:09:25;24.30;99.90
9847;DHT22;4962;50.084;8.794;2022-08-19T06:11:53;24.40;99.90
9847;DHT22;4962;50.084;8.794;2022-08-19T06:14:23;24.70;99.90
9847;DHT22;4962;50.084;8.794;2022-08-19T06:16:50;25.00;99.90
9847;DHT22;4962;50.084;8.794;2022-08-19T06:19:21;25.40;99.90
9847;DHT22;4962;50.084;8.794;2022-08-19T06:21:55;25.80;99.90
9847;DHT22;4962;50.084;8.794;2022-08-19T06:24:26;26.40;99.90
9847;DHT22;4962;50.084;8.794;2022-08-19T06:26:56;27.00;99.90
9847;DHT22;4962;50.084;8.794;2022-08-19T06:29:25;27.60;99.90
9847;DHT22;4962;50.084;8.794;2022-08-19T06:31:54;28.10;99.90
9847;DHT22;4962;50.084;8.794;2022-08-19T06:34:21;28.50;99.90
9847;DHT22;4962;50.084;8.794;2022-08-19T06:36:50;28.70;99.90
9847;DHT22;4962;50.084;8.794;2022-08-19T06:39:19;28.80;99.90
9847;DHT22;4962;50.084;8.794;2022-08-19T06:41:51;28.80;99.90
9847;DHT22;4962;50.084;8.794;2022-08-19T06:44:19;28.80;99.90
9847;DHT22;4962;50.084;8.794;2022-08-19T06:46:46;28.70;99.90
9847;DHT22;4962;50.084;8.794;2022-08-19T06:49:14;28.60;99.90
9847;DHT22;4962;50.084;8.794;2022-08-19T06:51:42;28.50;99.90
9847;DHT22;4962;50.084;8.794;2022-08-19T06:54:10;28.30;99.90
9847;DHT22;4962;50.084;8.794;2022-08-19T06:56:38;28.20;99.90
9847;DHT22;4962;50.084;8.794;2022-08-19T06:59:08;28.10;99.90
9847;DHT22;4962;50.084;8.794;2022-08-19T07:01:36;28.00;99.90
9847;DHT22;4962;50.084;8.794;2022-08-19T07:04:04;28.00;99.90
9847;DHT22;4962;50.084;8.794;2022-08-19T07:06:32;28.00;99.90
9847;DHT22;4962;50.084;8.794;2022-08-19T07:08:58;28.00;99.90
9847;DHT22;4962;50.084;8.794;2022-08-19T07:11:26;28.20;99.90
9847;DHT22;4962;50.084;8.794;2022-08-19T07:13:53;28.40;99.90
9847;DHT22;4962;50.084;8.794;2022-08-19T07:16:22;28.70;99.90
9847;DHT22;4962;50.084;8.794;2022-08-19T07:18:50;29.00;99.90
9847;DHT22;4962;50.084;8.794;2022-08-19T07:21:19;29.20;99.90
9847;DHT22;4962;50.084;8.794;2022-08-19T07:23:47;29.50;99.90
9847;DHT22;4962;50.084;8.794;2022-08-19T07:26:17;29.80;99.90
9847;DHT22;4962;50.084;8.794;2022-08-19T07:28:45;30.00;99.80
9847;DHT22;4962;50.084;8.794;2022-08-19T07:31:15;30.30;98.80
9847;DHT22;4962;50.084;8.794;2022-08-19T07:33:47;30.40;98.00
9847;DHT22;4962;50.084;8.794;2022-08-19T07:36:16;30.50;97.20
9847;DHT22;4962;50.084;8.794;2022-08-19T07:38:47;30.50;96.60
9847;DHT22;4962;50.084;8.794;2022-08-19T07:41:18;30.50;96.30
9847;DHT22;4962;50.084;8.794;2022-08-19T07:43:48;30.60;96.20
9847;DHT22;4962;50.084;8.794;2022-08-19T07:46:17;30.60;96.00
9847;DHT22;4962;50.084;8.794;2022-08-19T07:48:48;30.60;95.70
9847;DHT22;4962;50.084;8.794;2022-08-19T07:51:32;30.70;95.40
9847;DHT22;4962;50.084;8.794;2022-08-19T07:53:59;30.70;95.20
9847;DHT22;4962;50.084;8.794;2022-08-19T07:56:26;30.80;94.90
9847;DHT22;4962;50.084;8.794;2022-08-19T07:58:53;30.70;94.60
9847;DHT22;4962;50.084;8.794;2022-08-19T08:01:23;30.60;94.40
9847;DHT22;4962;50.084;8.794;2022-08-19T08:03:53;30.60;94.30
9847;DHT22;4962;50.084;8.794;2022-08-19T08:06:38;30.60;94.60
9847;DHT22;4962;50.084;8.794;2022-08-19T08:09:24;30.50;94.40
9847;DHT22;4962;50.084;8.794;2022-08-19T08:11:53;30.50;94.60
9847;DHT22;4962;50.084;8.794;2022-08-19T08:14:25;30.50;94.80
9847;DHT22;4962;50.084;8.794;2022-08-19T08:16:54;30.50;94.80
9847;DHT22;4962;50.084;8.794;2022-08-19T08:19:24;30.60;94.60
9847;DHT22;4962;50.084;8.794;2022-08-19T08:21:54;30.60;94.30
9847;DHT22;4962;50.084;8.794;2022-08-19T08:24:22;30.50;94.20
9847;DHT22;4962;50.084;8.794;2022-08-19T08:26:49;30.40;94.30
9847;DHT22;4962;50.084;8.794;2022-08-19T08:29:15;30.30;94.50
9847;DHT22;4962;50.084;8.794;2022-08-19T08:31:43;30.20;94.60
9847;DHT22;4962;50.084;8.794;2022-08-19T08:34:12;30.20;94.70
9847;DHT22;4962;50.084;8.794;2022-08-19T08:36:43;30.20;95.00
9847;DHT22;4962;50.084;8.794;2022-08-19T08:39:12;30.20;95.10
9847;DHT22;4962;50.084;8.794;2022-08-19T08:41:47;30.10;95.10
9847;DHT22;4962;50.084;8.794;2022-08-19T08:44:22;30.10;95.10
9847;DHT22;4962;50.084;8.794;2022-08-19T08:46:51;30.20;95.30
9847;DHT22;4962;50.084;8.794;2022-08-19T08:49:33;30.20;94.80
9847;DHT22;4962;50.084;8.794;2022-08-19T08:52:06;30.20;94.50
9847;DHT22;4962;50.084;8.794;2022-08-19T08:54:38;30.20;93.90
9847;DHT22;4962;50.084;8.794;2022-08-19T08:57:10;30.20;93.30
9847;DHT22;4962;50.084;8.794;2022-08-19T08:59:40;30.20;93.30
9847;DHT22;4962;50.084;8.794;2022-08-19T09:02:08;30.10;93.40
9847;DHT22;4962;50.084;8.794;2022-08-19T09:04:36;30.10;93.30
9847;DHT22;4962;50.084;8.794;2022-08-19T09:07:18;30.00;93.00
9847;DHT22;4962;50.084;8.794;2022-08-19T09:09:50;30.00;92.80
9847;DHT22;4962;50.084;8.794;2022-08-19T09:12:23;30.00;92.40
9847;DHT22;4962;50.084;8.794;2022-08-19T09:14:54;30.00;92.30
9847;DHT22;4962;50.084;8.794;2022-08-19T09:17:26;29.90;92.20
9847;DHT22;4962;50.084;8.794;2022-08-19T09:19:58;29.90;92.20
9847;DHT22;4962;50.084;8.794;2022-08-19T09:22:32;29.90;92.10
9847;DHT22;4962;50.084;8.794;2022-08-19T09:24:59;29.90;92.00
9847;DHT22;4962;50.084;8.794;2022-08-19T09:27:27;29.90;92.00
9847;DHT22;4962;50.084;8.794;2022-08-19T09:29:55;29.90;91.90
9847;DHT22;4962;50.084;8.794;2022-08-19T09:32:23;29.90;91.90
9847;DHT22;4962;50.084;8.794;2022-08-19T09:34:51;29.90;91.90
9847;DHT22;4962;50.084;8.794;2022-08-19T09:37:20;29.90;91.90
9847;DHT22;4962;50.084;8.794;2022-08-19T09:39:49;29.90;91.90
9847;DHT22;4962;50.084;8.794;2022-08-19T09:42:16;29.80;91.90
9847;DHT22;4962;50.084;8.794;2022-08-19T09:44:43;29.90;91.60
9847;DHT22;4962;50.084;8.794;2022-08-19T09:47:12;29.90;91.10
9847;DHT22;4962;50.084;8.794;2022-08-19T09:49:39;29.90;90.70
9847;DHT22;4962;50.084;8.794;2022-08-19T09:52:08;29.90;90.40
9847;DHT22;4962;50.084;8.794;2022-08-19T09:54:42;29.90;90.40
9847;DHT22;4962;50.084;8.794;2022-08-19T09:57:10;29.90;90.30
9847;DHT22;4962;50.084;8.794;2022-08-19T09:59:39;30.00;90.30
9847;DHT22;4962;50.084;8.794;2022-08-19T10:02:06;29.90;90.00
9847;DHT22;4962;50.084;8.794;2022-08-19T10:04:33;29.90;90.00
9847;DHT22;4962;50.084;8.794;2022-08-19T10:07:14;30.00;90.10
9847;DHT22;4962;50.084;8.794;2022-08-19T10:09:41;29.90;90.10
9847;DHT22;4962;50.084;8.794;2022-08-19T10:12:10;29.90;90.00
9847;DHT22;4962;50.084;8.794;2022-08-19T10:14:36;29.90;90.50
9847;DHT22;4962;50.084;8.794;2022-08-19T10:17:04;29.90;90.00
9847;DHT22;4962;50.084;8.794;2022-08-19T10:19:31;29.90;89.80
9847;DHT22;4962;50.084;8.794;2022-08-19T10:22:03;29.80;90.00
9847;DHT22;4962;50.084;8.794;2022-08-19T10:24:29;29.80;90.00
9847;DHT22;4962;50.084;8.794;2022-08-19T10:26:57;29.80;90.10
9847;DHT22;4962;50.084;8.794;2022-08-19T10:29:25;29.70;90.10
9847;DHT22;4962;50.084;8.794;2022-08-19T10:31:53;29.70;90.00
9847;DHT22;4962;50.084;8.794;2022-08-19T10:34:22;29.70;90.10
9847;DHT22;4962;50.084;8.794;2022-08-19T10:36:49;29.70;90.20
9847;DHT22;4962;50.084;8.794;2022-08-19T10:39:17;29.70;90.30
9847;DHT22;4962;50.084;8.794;2022-08-19T10:41:44;29.70;90.30
9847;DHT22;4962;50.084;8.794;2022-08-19T10:44:15;29.70;90.20
9847;DHT22;4962;50.084;8.794;2022-08-19T10:46:44;29.70;89.90
9847;DHT22;4962;50.084;8.794;2022-08-19T10:49:13;29.80;89.70
9847;DHT22;4962;50.084;8.794;2022-08-19T10:51:40;29.70;89.90
9847;DHT22;4962;50.084;8.794;2022-08-19T10:54:24;29.70;89.70
9847;DHT22;4962;50.084;8.794;2022-08-19T10:57:12;29.70;89.00
9847;DHT22;4962;50.084;8.794;2022-08-19T10:59:45;29.70;88.80
9847;DHT22;4962;50.084;8.794;2022-08-19T11:02:13;29.80;89.00
9847;DHT22;4962;50.084;8.794;2022-08-19T11:04:40;29.80;89.20
9847;DHT22;4962;50.084;8.794;2022-08-19T11:07:08;29.80;89.20
9847;DHT22;4962;50.084;8.794;2022-08-19T11:09:39;29.90;89.10
9847;DHT22;4962;50.084;8.794;2022-08-19T11:12:07;29.90;88.80
9847;DHT22;4962;50.084;8.794;2022-08-19T11:14:34;30.00;88.40
9847;DHT22;4962;50.084;8.794;2022-08-19T11:17:02;30.00;87.20
9847;DHT22;4962;50.084;8.794;2022-08-19T11:19:31;30.10;86.70
9847;DHT22;4962;50.084;8.794;2022-08-19T11:21:58;30.20;87.00
9847;DHT22;4962;50.084;8.794;2022-08-19T11:24:29;30.20;86.70
9847;DHT22;4962;50.084;8.794;2022-08-19T11:27:02;30.30;86.20
9847;DHT22;4962;50.084;8.794;2022-08-19T11:29:30;30.30;85.20
9847;DHT22;4962;50.084;8.794;2022-08-19T11:31:58;30.40;84.80
9847;DHT22;4962;50.084;8.794;2022-08-19T11:34:27;30.40;84.90
9847;DHT22;4962;50.084;8.794;2022-08-19T11:36:56;30.40;84.50
9847;DHT22;4962;50.084;8.794;2022-08-19T11:39:26;30.40;84.20
9847;DHT22;4962;50.084;8.794;2022-08-19T11:41:53;30.30;84.20
9847;DHT22;4962;50.084;8.794;2022-08-19T11:44:22;30.30;84.00
9847;DHT22;4962;50.084;8.794;2022-08-19T11:46:49;30.30;83.80
9847;DHT22;4962;50.084;8.794;2022-08-19T11:49:19;30.30;83.60
9847;DHT22;4962;50.084;8.794;2022-08-19T11:51:47;30.20;83.20
9847;DHT22;4962;50.084;8.794;2022-08-19T11:54:17;30.20;82.70
9847;DHT22;4962;50.084;8.794;2022-08-19T11:56:44;30.10;82.50
9847;DHT22;4962;50.084;8.794;2022-08-19T11:59:13;30.00;82.10
9847;DHT22;4962;50.084;8.794;2022-08-19T12:01:49;30.00;81.80
9847;DHT22;4962;50.084;8.794;2022-08-19T12:04:16;30.00;81.50
9847;DHT22;4962;50.084;8.794;2022-08-19T12:06:43;30.00;81.50
9847;DHT22;4962;50.084;8.794;2022-08-19T12:09:12;30.00;82.00
9847;DHT22;4962;50.084;8.794;2022-08-19T12:11:42;29.90;82.30
9847;DHT22;4962;50.084;8.794;2022-08-19T12:14:11;29.90;82.40
9847;DHT22;4962;50.084;8.794;2022-08-19T12:16:40;29.90;82.00
9847;DHT22;4962;50.084;8.794;2022-08-19T12:19:32;29.90;82.00
9847;DHT22;4962;50.084;8.794;2022-08-19T12:22:00;29.90;82.00
9847;DHT22;4962;50.084;8.794;2022-08-19T12:24:30;29.90;82.20
9847;DHT22;4962;50.084;8.794;2022-08-19T12:26:59;29.90;81.80
9847;DHT22;4962;50.084;8.794;2022-08-19T12:29:30;29.90;81.30
9847;DHT22;4962;50.084;8.794;2022-08-19T12:32:01;29.90;81.10
9847;DHT22;4962;50.084;8.794;2022-08-19T12:34:28;29.90;80.70
9847;DHT22;4962;50.084;8.794;2022-08-19T12:36:56;29.90;80.40
9847;DHT22;4962;50.084;8.794;2022-08-19T12:39:24;29.90;80.10
9847;DHT22;4962;50.084;8.794;2022-08-19T12:41:51;29.90;80.00
9847;DHT22;4962;50.084;8.794;2022-08-19T12:44:20;29.90;80.30
9847;DHT22;4962;50.084;8.794;2022-08-19T12:46:47;30.00;79.10
9847;DHT22;4962;50.084;8.794;2022-08-19T12:49:15;30.00;79.10
9847;DHT22;4962;50.084;8.794;2022-08-19T12:52:12;30.00;78.80
9847;DHT22;4962;50.084;8.794;2022-08-19T12:54:41;30.00;78.70
9847;DHT22;4962;50.084;8.794;2022-08-19T12:57:09;30.00;78.40
9847;DHT22;4962;50.084;8.794;2022-08-19T12:59:39;30.00;78.50
9847;DHT22;4962;50.084;8.794;2022-08-19T13:02:07;30.00;78.40
9847;DHT22;4962;50.084;8.794;2022-08-19T13:04:34;30.00;78.10
9847;DHT22;4962;50.084;8.794;2022-08-19T13:07:06;30.00;77.30
9847;DHT22;4962;50.084;8.794;2022-08-19T13:09:33;30.00;76.40
9847;DHT22;4962;50.084;8.794;2022-08-19T13:12:01;30.00;75.70
9847;DHT22;4962;50.084;8.794;2022-08-19T13:14:32;30.00;75.00
9847;DHT22;4962;50.084;8.794;2022-08-19T13:17:01;30.10;74.90
9847;DHT22;4962;50.084;8.794;2022-08-19T13:19:28;30.10;74.50
9847;DHT22;4962;50.084;8.794;2022-08-19T13:21:55;30.10;74.60
9847;DHT22;4962;50.084;8.794;2022-08-19T13:24:23;30.10;74.30
9847;DHT22;4962;50.084;8.794;2022-08-19T13:26:50;30.10;74.10
9847;DHT22;4962;50.084;8.794;2022-08-19T13:29:17;30.10;74.10
9847;DHT22;4962;50.084;8.794;2022-08-19T13:32:12;30.20;74.40
9847;DHT22;4962;50.084;8.794;2022-08-19T13:34:56;30.20;74.10
9847;DHT22;4962;50.084;8.794;2022-08-19T13:37:23;30.20;73.50
9847;DHT22;4962;50.084;8.794;2022-08-19T13:40:05;30.30;73.50
9847;DHT22;4962;50.084;8.794;2022-08-19T13:42:32;30.20;73.30
9847;DHT22;4962;50.084;8.794;2022-08-19T13:44:59;30.20;73.00
9847;DHT22;4962;50.084;8.794;2022-08-19T13:47:27;30.20;73.20
9847;DHT22;4962;50.084;8.794;2022-08-19T13:49:54;30.20;73.30
9847;DHT22;4962;50.084;8.794;2022-08-19T13:52:21;30.10;73.00
9847;DHT22;4962;50.084;8.794;2022-08-19T13:54:48;30.10;73.00
9847;DHT22;4962;50.084;8.794;2022-08-19T13:57:15;30.10;73.00
9847;DHT22;4962;50.084;8.794;2022-08-19T13:59:41;30.10;72.80
9847;DHT22;4962;50.084;8.794;2022-08-19T14:02:14;30.10;72.60
9847;DHT22;4962;50.084;8.794;2022-08-19T14:04:43;30.20;72.30
9847;DHT22;4962;50.084;8.794;2022-08-19T14:07:10;30.20;73.20
9847;DHT22;4962;50.084;8.794;2022-08-19T14:09:36;30.20;73.50
9847;DHT22;4962;50.084;8.794;2022-08-19T14:12:04;30.20;73.20
9847;DHT22;4962;50.084;8.794;2022-08-19T14:14:31;30.20;73.50
9847;DHT22;4962;50.084;8.794;2022-08-19T14:16:58;30.30;74.10
9847;DHT22;4962;50.084;8.794;2022-08-19T14:19:24;30.30;73.20
9847;DHT22;4962;50.084;8.794;2022-08-19T14:21:53;30.30;73.20
9847;DHT22;4962;50.084;8.794;2022-08-19T14:24:23;30.30;72.80
9847;DHT22;4962;50.084;8.794;2022-08-19T14:26:49;30.30;72.60
9847;DHT22;4962;50.084;8.794;2022-08-19T14:29:16;30.40;72.60
9847;DHT22;4962;50.084;8.794;2022-08-19T14:31:43;30.50;72.60
9847;DHT22;4962;50.084;8.794;2022-08-19T14:34:10;30.50;72.70
9847;DHT22;4962;50.084;8.794;2022-08-19T14:36:38;30.50;72.70
9847;DHT22;4962;50.084;8.794;2022-08-19T14:39:06;30.50;72.70
9847;DHT22;4962;50.084;8.794;2022-08-19T14:41:34;30.50;72.30
9847;DHT22;4962;50.084;8.794;2022-08-19T14:44:00;30.50;71.50
9847;DHT22;4962;50.084;8.794;2022-08-19T14:46:28;30.50;70.70
9847;DHT22;4962;50.084;8.794;2022-08-19T14:48:55;30.50;70.40
9847;DHT22;4962;50.084;8.794;2022-08-19T14:51:24;30.50;70.50
9847;DHT22;4962;50.084;8.794;2022-08-19T14:53:52;30.50;70.60
9847;DHT22;4962;50.084;8.794;2022-08-19T14:56:24;30.40;70.30
9847;DHT22;4962;50.084;8.794;2022-08-19T14:58:51;30.50;70.20
9847;DHT22;4962;50.084;8.794;2022-08-19T15:01:19;30.40;70.30
9847;DHT22;4962;50.084;8.794;2022-08-19T15:03:48;30.40;70.30
9847;DHT22;4962;50.084;8.794;2022-08-19T15:06:15;30.40;70.20
9847;DHT22;4962;50.084;8.794;2022-08-19T15:08:42;30.40;70.30
9847;DHT22;4962;50.084;8.794;2022-08-19T15:11:12;30.40;70.80
9847;DHT22;4962;50.084;8.794;2022-08-19T15:13:42;30.40;71.30
9847;DHT22;4962;50.084;8.794;2022-08-19T15:16:12;30.40;71.40
9847;DHT22;4962;50.084;8.794;2022-08-19T15:18:40;30.40;71.60
9847;DHT22;4962;50.084;8.794;2022-08-19T15:21:08;30.40;71.90
9847;DHT22;4962;50.084;8.794;2022-08-19T15:23:34;30.40;72.00
9847;DHT22;4962;50.084;8.794;2022-08-19T15:26:02;30.50;71.80
9847;DHT22;4962;50.084;8.794;2022-08-19T15:28:31;30.50;71.70
9847;DHT22;4962;50.084;8.794;2022-08-19T15:30:59;30.50;71.50
9847;DHT22;4962;50.084;8.794;2022-08-19T15:33:26;30.40;71.10
9847;DHT22;4962;50.084;8.794;2022-08-19T15:35:54;30.40;71.90
9847;DHT22;4962;50.084;8.794;2022-08-19T15:38:22;30.40;71.00
9847;DHT22;4962;50.084;8.794;2022-08-19T15:40:51;30.40;71.80
9847;DHT22;4962;50.084;8.794;2022-08-19T15:43:19;30.50;70.50
9847;DHT22;4962;50.084;8.794;2022-08-19T15:45:47;30.50;70.60
9847;DHT22;4962;50.084;8.794;2022-08-19T15:48:15;30.50;69.40
9847;DHT22;4962;50.084;8.794;2022-08-19T15:50:42;30.40;69.20
9847;DHT22;4962;50.084;8.794;2022-08-19T15:53:10;30.40;69.10
9847;DHT22;4962;50.084;8.794;2022-08-19T15:55:42;30.30;68.50
9847;DHT22;4962;50.084;8.794;2022-08-19T15:58:11;30.30;68.50
9847;DHT22;4962;50.084;8.794;2022-08-19T16:00:56;30.30;68.50
9847;DHT22;4962;50.084;8.794;2022-08-19T16:03:42;30.20;68.40
9847;DHT22;4962;50.084;8.794;2022-08-19T16:06:28;30.20;68.70
9847;DHT22;4962;50.084;8.794;2022-08-19T16:08:57;30.20;68.40
9847;DHT22;4962;50.084;8.794;2022-08-19T16:11:28;30.20;67.60
9847;DHT22;4962;50.084;8.794;2022-08-19T16:13:57;30.10;67.50
9847;DHT22;4962;50.084;8.794;2022-08-19T16:16:26;30.10;67.10